sensor_id;sensor_type;location;lat;lon;timestamp;P1;durP1;ratioP1;P2;durP2;ratioP2
13927;SDS011;7036;50.834;4.718;2023-07-31T00:02:26;2.90;;;2.50;;
13927;SDS011;7036;50.834;4.718;2023-07-31T00:04:53;3.17;;;2.23;;
13927;SDS011;7036;50.834;4.718;2023-07-31T00:07:20;2.87;;;2.50;;
13927;SDS011;7036;50.834;4.718;2023-07-31T00:09:47;2.50;;;2.30;;
13927;SDS011;7036;50.834;4.718;2023-07-31T00:12:14;2.80;;;2.30;;
13927;SDS011;7036;50.834;4.718;2023-07-31T00:14:41;3.93;;;2.30;;
13927;SDS011;7036;50.834;4.718;2023-07-31T00:17:08;5.30;;;2.87;;
13927;SDS011;7036;50.834;4.718;2023-07-31T00:19:35;3.63;;;2.00;;
13927;SDS011;7036;50.834;4.718;2023-07-31T00:22:02;4.70;;;2.50;;
13927;SDS011;7036;50.834;4.718;2023-07-31T00:24:29;3.90;;;2.43;;
13927;SDS011;7036;50.834;4.718;2023-07-31T00:26:56;3.10;;;2.80;;
13927;SDS011;7036;50.834;4.718;2023-07-31T00:29:23;2.97;;;2.27;;
13927;SDS011;7036;50.834;4.718;2023-07-31T00:31:50;2.77;;;2.20;;
13927;SDS011;7036;50.834;4.718;2023-07-31T00:34:17;2.97;;;2.23;;
13927;SDS011;7036;50.834;4.718;2023-07-31T00:36:43;3.20;;;2.27;;
13927;SDS011;7036;50.834;4.718;2023-07-31T00:39:10;2.37;;;2.17;;
13927;SDS011;7036;50.834;4.718;2023-07-31T00:41:37;4.70;;;2.40;;
13927;SDS011;7036;50.834;4.718;2023-07-31T00:44:04;3.60;;;2.40;;
13927;SDS011;7036;50.834;4.718;2023-07-31T00:46:31;3.90;;;2.40;;
13927;SDS011;7036;50.834;4.718;2023-07-31T00:48:59;3.27;;;2.20;;
13927;SDS011;7036;50.834;4.718;2023-07-31T00:51:25;2.73;;;2.27;;
13927;SDS011;7036;50.834;4.718;2023-07-31T00:53:52;3.00;;;2.40;;
13927;SDS011;7036;50.834;4.718;2023-07-31T00:56:19;4.57;;;2.53;;
13927;SDS011;7036;50.834;4.718;2023-07-31T00:58:46;3.27;;;2.50;;
13927;SDS011;7036;50.834;4.718;2023-07-31T01:01:13;2.90;;;2.40;;
13927;SDS011;7036;50.834;4.718;2023-07-31T01:03:40;3.40;;;2.63;;
13927;SDS011;7036;50.834;4.718;2023-07-31T01:11:46;3.40;;;2.33;;
13927;SDS011;7036;50.834;4.718;2023-07-31T01:14:13;3.37;;;2.77;;
13927;SDS011;7036;50.834;4.718;2023-07-31T01:16:40;4.50;;;2.67;;
13927;SDS011;7036;50.834;4.718;2023-07-31T01:19:07;3.37;;;2.60;;
13927;SDS011;7036;50.834;4.718;2023-07-31T01:24:28;3.57;;;2.50;;
13927;SDS011;7036;50.834;4.718;2023-07-31T01:29:35;4.33;;;2.73;;
13927;SDS011;7036;50.834;4.718;2023-07-31T01:31:59;2.40;;;2.20;;
13927;SDS011;7036;50.834;4.718;2023-07-31T01:34:25;3.43;;;2.50;;
13927;SDS011;7036;50.834;4.718;2023-07-31T01:36:52;3.93;;;2.97;;
13927;SDS011;7036;50.834;4.718;2023-07-31T01:39:20;3.17;;;2.37;;
13927;SDS011;7036;50.834;4.718;2023-07-31T01:41:46;4.93;;;2.60;;
13927;SDS011;7036;50.834;4.718;2023-07-31T01:44:13;2.60;;;2.40;;
13927;SDS011;7036;50.834;4.718;2023-07-31T01:46:40;3.90;;;2.33;;
13927;SDS011;7036;50.834;4.718;2023-07-31T01:49:07;3.13;;;2.53;;
13927;SDS011;7036;50.834;4.718;2023-07-31T01:51:34;3.73;;;2.40;;
13927;SDS011;7036;50.834;4.718;2023-07-31T01:54:01;3.27;;;2.27;;
13927;SDS011;7036;50.834;4.718;2023-07-31T01:56:27;3.10;;;2.70;;
13927;SDS011;7036;50.834;4.718;2023-07-31T01:58:54;5.67;;;2.97;;
13927;SDS011;7036;50.834;4.718;2023-07-31T02:01:21;3.37;;;2.47;;
13927;SDS011;7036;50.834;4.718;2023-07-31T02:03:48;2.83;;;2.57;;
13927;SDS011;7036;50.834;4.718;2023-07-31T02:06:15;2.80;;;2.37;;
13927;SDS011;7036;50.834;4.718;2023-07-31T02:08:42;4.00;;;2.77;;
13927;SDS011;7036;50.834;4.718;2023-07-31T02:11:10;3.83;;;2.40;;
13927;SDS011;7036;50.834;4.718;2023-07-31T02:13:36;4.43;;;2.80;;
13927;SDS011;7036;50.834;4.718;2023-07-31T02:16:04;3.10;;;2.47;;
13927;SDS011;7036;50.834;4.718;2023-07-31T02:18:31;3.93;;;2.47;;
13927;SDS011;7036;50.834;4.718;2023-07-31T02:20:58;3.63;;;2.67;;
13927;SDS011;7036;50.834;4.718;2023-07-31T02:23:25;3.90;;;2.70;;
13927;SDS011;7036;50.834;4.718;2023-07-31T02:25:52;4.40;;;2.60;;
13927;SDS011;7036;50.834;4.718;2023-07-31T02:28:19;2.90;;;2.57;;
13927;SDS011;7036;50.834;4.718;2023-07-31T02:30:46;3.10;;;2.47;;
13927;SDS011;7036;50.834;4.718;2023-07-31T02:33:13;3.73;;;2.73;;
13927;SDS011;7036;50.834;4.718;2023-07-31T02:35:40;4.05;;;2.70;;
13927;SDS011;7036;50.834;4.718;2023-07-31T02:38:07;2.77;;;2.53;;
13927;SDS011;7036;50.834;4.718;2023-07-31T02:40:33;4.53;;;2.87;;
13927;SDS011;7036;50.834;4.718;2023-07-31T02:43:00;5.20;;;3.00;;
13927;SDS011;7036;50.834;4.718;2023-07-31T02:45:27;3.10;;;2.53;;
13927;SDS011;7036;50.834;4.718;2023-07-31T02:47:55;3.13;;;2.30;;
13927;SDS011;7036;50.834;4.718;2023-07-31T02:50:22;3.57;;;2.60;;
13927;SDS011;7036;50.834;4.718;2023-07-31T02:52:49;3.17;;;2.70;;
13927;SDS011;7036;50.834;4.718;2023-07-31T02:55:16;2.57;;;2.17;;
13927;SDS011;7036;50.834;4.718;2023-07-31T02:57:43;5.00;;;2.93;;
13927;SDS011;7036;50.834;4.718;2023-07-31T03:00:10;3.43;;;2.40;;
13927;SDS011;7036;50.834;4.718;2023-07-31T03:02:37;3.60;;;2.50;;
13927;SDS011;7036;50.834;4.718;2023-07-31T03:05:04;3.27;;;2.27;;
13927;SDS011;7036;50.834;4.718;2023-07-31T03:07:31;3.13;;;2.83;;
13927;SDS011;7036;50.834;4.718;2023-07-31T03:09:58;4.27;;;3.00;;
13927;SDS011;7036;50.834;4.718;2023-07-31T03:12:25;3.57;;;2.40;;
13927;SDS011;7036;50.834;4.718;2023-07-31T03:14:53;3.17;;;2.47;;
13927;SDS011;7036;50.834;4.718;2023-07-31T03:17:21;3.00;;;2.33;;
13927;SDS011;7036;50.834;4.718;2023-07-31T03:19:48;4.17;;;3.03;;
13927;SDS011;7036;50.834;4.718;2023-07-31T03:22:15;3.17;;;2.67;;
13927;SDS011;7036;50.834;4.718;2023-07-31T03:24:42;2.47;;;2.27;;
13927;SDS011;7036;50.834;4.718;2023-07-31T03:27:09;3.47;;;2.33;;
13927;SDS011;7036;50.834;4.718;2023-07-31T03:29:36;2.50;;;2.30;;
13927;SDS011;7036;50.834;4.718;2023-07-31T03:32:03;2.63;;;2.43;;
13927;SDS011;7036;50.834;4.718;2023-07-31T03:34:30;3.87;;;2.30;;
13927;SDS011;7036;50.834;4.718;2023-07-31T03:36:56;4.23;;;2.70;;
13927;SDS011;7036;50.834;4.718;2023-07-31T03:39:24;2.40;;;2.20;;
13927;SDS011;7036;50.834;4.718;2023-07-31T03:41:50;3.53;;;2.70;;
13927;SDS011;7036;50.834;4.718;2023-07-31T03:44:17;3.30;;;2.60;;
13927;SDS011;7036;50.834;4.718;2023-07-31T03:46:44;3.17;;;2.70;;
13927;SDS011;7036;50.834;4.718;2023-07-31T03:49:17;3.40;;;2.43;;
13927;SDS011;7036;50.834;4.718;2023-07-31T03:51:44;2.50;;;2.30;;
13927;SDS011;7036;50.834;4.718;2023-07-31T03:54:11;3.27;;;2.60;;
13927;SDS011;7036;50.834;4.718;2023-07-31T03:56:38;2.90;;;2.50;;
13927;SDS011;7036;50.834;4.718;2023-07-31T03:59:05;3.43;;;2.70;;
13927;SDS011;7036;50.834;4.718;2023-07-31T04:01:32;4.83;;;2.20;;
13927;SDS011;7036;50.834;4.718;2023-07-31T04:03:59;2.93;;;2.43;;
13927;SDS011;7036;50.834;4.718;2023-07-31T04:06:26;2.80;;;2.47;;
13927;SDS011;7036;50.834;4.718;2023-07-31T04:08:53;3.57;;;2.90;;
13927;SDS011;7036;50.834;4.718;2023-07-31T04:11:19;3.33;;;2.50;;
13927;SDS011;7036;50.834;4.718;2023-07-31T04:13:46;3.47;;;2.33;;
13927;SDS011;7036;50.834;4.718;2023-07-31T04:16:14;4.35;;;2.55;;
13927;SDS011;7036;50.834;4.718;2023-07-31T04:18:41;2.97;;;2.37;;
13927;SDS011;7036;50.834;4.718;2023-07-31T04:21:09;3.00;;;2.45;;
13927;SDS011;7036;50.834;4.718;2023-07-31T04:23:36;2.47;;;2.20;;
13927;SDS011;7036;50.834;4.718;2023-07-31T04:26:03;2.53;;;2.33;;
13927;SDS011;7036;50.834;4.718;2023-07-31T04:28:30;2.50;;;2.20;;
13927;SDS011;7036;50.834;4.718;2023-07-31T04:30:57;2.47;;;2.27;;
13927;SDS011;7036;50.834;4.718;2023-07-31T04:33:24;3.87;;;2.50;;
13927;SDS011;7036;50.834;4.718;2023-07-31T04:35:51;2.93;;;2.33;;
13927;SDS011;7036;50.834;4.718;2023-07-31T04:38:19;4.47;;;2.60;;
13927;SDS011;7036;50.834;4.718;2023-07-31T04:40:45;2.43;;;2.23;;
13927;SDS011;7036;50.834;4.718;2023-07-31T04:43:13;3.65;;;2.30;;
13927;SDS011;7036;50.834;4.718;2023-07-31T04:45:44;3.33;;;2.43;;
13927;SDS011;7036;50.834;4.718;2023-07-31T04:48:09;2.67;;;2.30;;
13927;SDS011;7036;50.834;4.718;2023-07-31T04:50:36;3.10;;;2.60;;
13927;SDS011;7036;50.834;4.718;2023-07-31T04:53:03;2.33;;;2.13;;
13927;SDS011;7036;50.834;4.718;2023-07-31T04:55:30;2.80;;;2.50;;
13927;SDS011;7036;50.834;4.718;2023-07-31T04:57:58;3.40;;;2.57;;
13927;SDS011;7036;50.834;4.718;2023-07-31T05:00:23;2.50;;;2.30;;
13927;SDS011;7036;50.834;4.718;2023-07-31T05:02:50;2.80;;;2.27;;
13927;SDS011;7036;50.834;4.718;2023-07-31T05:05:17;3.87;;;2.63;;
13927;SDS011;7036;50.834;4.718;2023-07-31T05:07:44;3.20;;;2.50;;
13927;SDS011;7036;50.834;4.718;2023-07-31T05:10:11;4.03;;;2.60;;
13927;SDS011;7036;50.834;4.718;2023-07-31T05:12:38;2.87;;;2.27;;
13927;SDS011;7036;50.834;4.718;2023-07-31T05:15:05;3.07;;;2.60;;
13927;SDS011;7036;50.834;4.718;2023-07-31T05:17:32;3.17;;;2.70;;
13927;SDS011;7036;50.834;4.718;2023-07-31T05:19:59;2.93;;;2.57;;
13927;SDS011;7036;50.834;4.718;2023-07-31T05:22:26;2.93;;;2.20;;
13927;SDS011;7036;50.834;4.718;2023-07-31T05:24:53;2.97;;;2.40;;
13927;SDS011;7036;50.834;4.718;2023-07-31T05:27:20;2.60;;;2.40;;
13927;SDS011;7036;50.834;4.718;2023-07-31T05:29:47;3.60;;;2.40;;
13927;SDS011;7036;50.834;4.718;2023-07-31T05:32:13;2.50;;;2.30;;
13927;SDS011;7036;50.834;4.718;2023-07-31T05:34:40;2.97;;;2.67;;
13927;SDS011;7036;50.834;4.718;2023-07-31T05:37:09;3.00;;;2.70;;
13927;SDS011;7036;50.834;4.718;2023-07-31T05:39:36;3.23;;;2.37;;
13927;SDS011;7036;50.834;4.718;2023-07-31T05:42:04;3.53;;;2.40;;
13927;SDS011;7036;50.834;4.718;2023-07-31T05:44:30;3.57;;;2.10;;
13927;SDS011;7036;50.834;4.718;2023-07-31T05:46:57;2.60;;;2.10;;
13927;SDS011;7036;50.834;4.718;2023-07-31T05:49:24;2.47;;;2.13;;
13927;SDS011;7036;50.834;4.718;2023-07-31T05:51:51;2.57;;;2.30;;
13927;SDS011;7036;50.834;4.718;2023-07-31T05:54:18;2.37;;;1.87;;
13927;SDS011;7036;50.834;4.718;2023-07-31T05:56:46;2.63;;;2.23;;
13927;SDS011;7036;50.834;4.718;2023-07-31T05:59:13;2.50;;;2.30;;
13927;SDS011;7036;50.834;4.718;2023-07-31T06:01:40;2.93;;;2.50;;
13927;SDS011;7036;50.834;4.718;2023-07-31T06:04:07;2.67;;;2.30;;
13927;SDS011;7036;50.834;4.718;2023-07-31T06:06:34;5.83;;;2.53;;
13927;SDS011;7036;50.834;4.718;2023-07-31T06:09:00;2.60;;;2.40;;
13927;SDS011;7036;50.834;4.718;2023-07-31T06:11:27;2.77;;;2.40;;
13927;SDS011;7036;50.834;4.718;2023-07-31T06:13:54;2.40;;;2.20;;
13927;SDS011;7036;50.834;4.718;2023-07-31T06:16:21;2.97;;;2.00;;
13927;SDS011;7036;50.834;4.718;2023-07-31T06:18:48;3.17;;;2.43;;
13927;SDS011;7036;50.834;4.718;2023-07-31T06:21:15;2.37;;;1.97;;
13927;SDS011;7036;50.834;4.718;2023-07-31T06:23:42;2.37;;;2.17;;
13927;SDS011;7036;50.834;4.718;2023-07-31T06:26:09;2.20;;;2.00;;
13927;SDS011;7036;50.834;4.718;2023-07-31T06:28:36;4.13;;;2.60;;
13927;SDS011;7036;50.834;4.718;2023-07-31T06:31:03;2.57;;;2.37;;
13927;SDS011;7036;50.834;4.718;2023-07-31T06:33:30;2.60;;;2.40;;
13927;SDS011;7036;50.834;4.718;2023-07-31T06:35:58;3.00;;;2.50;;
13927;SDS011;7036;50.834;4.718;2023-07-31T06:38:25;2.27;;;2.07;;
13927;SDS011;7036;50.834;4.718;2023-07-31T06:40:52;2.73;;;2.37;;
13927;SDS011;7036;50.834;4.718;2023-07-31T06:43:19;3.23;;;2.30;;
13927;SDS011;7036;50.834;4.718;2023-07-31T06:45:46;2.33;;;2.10;;
13927;SDS011;7036;50.834;4.718;2023-07-31T06:48:12;2.50;;;2.30;;
13927;SDS011;7036;50.834;4.718;2023-07-31T06:50:39;2.93;;;1.97;;
13927;SDS011;7036;50.834;4.718;2023-07-31T06:53:06;2.70;;;2.50;;
13927;SDS011;7036;50.834;4.718;2023-07-31T06:55:33;3.60;;;2.43;;
13927;SDS011;7036;50.834;4.718;2023-07-31T06:58:00;2.23;;;2.00;;
13927;SDS011;7036;50.834;4.718;2023-07-31T07:00:27;3.27;;;2.67;;
13927;SDS011;7036;50.834;4.718;2023-07-31T07:02:54;2.55;;;2.17;;
13927;SDS011;7036;50.834;4.718;2023-07-31T07:05:22;2.45;;;2.25;;
13927;SDS011;7036;50.834;4.718;2023-07-31T07:07:49;2.10;;;1.90;;
13927;SDS011;7036;50.834;4.718;2023-07-31T07:10:15;5.13;;;2.27;;
13927;SDS011;7036;50.834;4.718;2023-07-31T07:12:43;2.58;;;2.20;;
13927;SDS011;7036;50.834;4.718;2023-07-31T07:15:10;3.80;;;2.97;;
13927;SDS011;7036;50.834;4.718;2023-07-31T07:17:37;2.73;;;2.27;;
13927;SDS011;7036;50.834;4.718;2023-07-31T07:20:04;2.50;;;2.30;;
13927;SDS011;7036;50.834;4.718;2023-07-31T07:22:32;2.20;;;2.00;;
13927;SDS011;7036;50.834;4.718;2023-07-31T07:24:58;2.40;;;2.20;;
13927;SDS011;7036;50.834;4.718;2023-07-31T07:27:26;2.17;;;1.97;;
13927;SDS011;7036;50.834;4.718;2023-07-31T07:29:53;2.43;;;2.13;;
13927;SDS011;7036;50.834;4.718;2023-07-31T07:32:20;2.03;;;1.90;;
13927;SDS011;7036;50.834;4.718;2023-07-31T07:34:47;4.23;;;2.43;;
13927;SDS011;7036;50.834;4.718;2023-07-31T07:37:14;3.27;;;2.17;;
13927;SDS011;7036;50.834;4.718;2023-07-31T07:39:41;2.67;;;2.40;;
13927;SDS011;7036;50.834;4.718;2023-07-31T07:42:07;5.20;;;2.83;;
13927;SDS011;7036;50.834;4.718;2023-07-31T07:44:35;6.60;;;2.50;;
13927;SDS011;7036;50.834;4.718;2023-07-31T07:47:02;3.10;;;2.63;;
13927;SDS011;7036;50.834;4.718;2023-07-31T07:49:28;4.07;;;3.10;;
13927;SDS011;7036;50.834;4.718;2023-07-31T07:51:56;3.80;;;3.17;;
13927;SDS011;7036;50.834;4.718;2023-07-31T07:54:23;5.53;;;3.23;;
13927;SDS011;7036;50.834;4.718;2023-07-31T07:56:49;4.90;;;3.10;;
13927;SDS011;7036;50.834;4.718;2023-07-31T07:59:16;3.70;;;3.00;;
13927;SDS011;7036;50.834;4.718;2023-07-31T08:01:44;4.95;;;2.80;;
13927;SDS011;7036;50.834;4.718;2023-07-31T08:04:10;4.10;;;2.90;;
13927;SDS011;7036;50.834;4.718;2023-07-31T08:06:37;4.40;;;2.87;;
13927;SDS011;7036;50.834;4.718;2023-07-31T08:09:05;4.00;;;2.75;;
13927;SDS011;7036;50.834;4.718;2023-07-31T08:11:32;6.57;;;3.10;;
13927;SDS011;7036;50.834;4.718;2023-07-31T08:13:59;3.97;;;2.60;;
13927;SDS011;7036;50.834;4.718;2023-07-31T08:16:26;3.60;;;2.77;;
13927;SDS011;7036;50.834;4.718;2023-07-31T08:18:53;5.00;;;2.93;;
13927;SDS011;7036;50.834;4.718;2023-07-31T08:21:20;3.23;;;2.50;;
13927;SDS011;7036;50.834;4.718;2023-07-31T08:23:47;3.80;;;2.83;;
13927;SDS011;7036;50.834;4.718;2023-07-31T08:26:14;5.90;;;2.53;;
13927;SDS011;7036;50.834;4.718;2023-07-31T08:28:44;3.83;;;3.13;;
13927;SDS011;7036;50.834;4.718;2023-07-31T08:31:11;4.93;;;2.67;;
13927;SDS011;7036;50.834;4.718;2023-07-31T08:33:38;8.03;;;3.07;;
13927;SDS011;7036;50.834;4.718;2023-07-31T08:36:04;7.43;;;3.27;;
13927;SDS011;7036;50.834;4.718;2023-07-31T08:38:32;4.13;;;2.97;;
13927;SDS011;7036;50.834;4.718;2023-07-31T08:40:59;5.63;;;2.83;;
13927;SDS011;7036;50.834;4.718;2023-07-31T08:43:26;6.97;;;3.13;;
13927;SDS011;7036;50.834;4.718;2023-07-31T08:45:53;4.07;;;2.87;;
13927;SDS011;7036;50.834;4.718;2023-07-31T08:48:23;8.60;;;2.67;;
13927;SDS011;7036;50.834;4.718;2023-07-31T08:50:51;6.03;;;3.43;;
13927;SDS011;7036;50.834;4.718;2023-07-31T08:53:16;8.07;;;2.70;;
13927;SDS011;7036;50.834;4.718;2023-07-31T08:55:44;5.77;;;2.73;;
13927;SDS011;7036;50.834;4.718;2023-07-31T08:58:10;4.10;;;2.80;;
13927;SDS011;7036;50.834;4.718;2023-07-31T09:00:37;3.30;;;2.60;;
13927;SDS011;7036;50.834;4.718;2023-07-31T09:03:08;5.87;;;3.20;;
13927;SDS011;7036;50.834;4.718;2023-07-31T09:05:35;4.50;;;3.10;;
13927;SDS011;7036;50.834;4.718;2023-07-31T09:08:01;4.30;;;2.67;;
13927;SDS011;7036;50.834;4.718;2023-07-31T09:10:28;4.40;;;2.78;;
13927;SDS011;7036;50.834;4.718;2023-07-31T09:12:55;6.47;;;3.07;;
13927;SDS011;7036;50.834;4.718;2023-07-31T09:15:23;5.73;;;3.30;;
13927;SDS011;7036;50.834;4.718;2023-07-31T09:17:50;4.53;;;3.40;;
13927;SDS011;7036;50.834;4.718;2023-07-31T09:20:18;9.47;;;3.40;;
13927;SDS011;7036;50.834;4.718;2023-07-31T09:22:44;4.80;;;3.40;;
13927;SDS011;7036;50.834;4.718;2023-07-31T09:27:47;4.30;;;2.93;;
13927;SDS011;7036;50.834;4.718;2023-07-31T09:30:17;5.00;;;3.07;;
13927;SDS011;7036;50.834;4.718;2023-07-31T09:32:44;4.53;;;2.93;;
13927;SDS011;7036;50.834;4.718;2023-07-31T09:35:16;4.00;;;3.10;;
13927;SDS011;7036;50.834;4.718;2023-07-31T09:37:53;4.50;;;2.70;;
13927;SDS011;7036;50.834;4.718;2023-07-31T09:40:52;5.57;;;3.20;;
13927;SDS011;7036;50.834;4.718;2023-07-31T09:42:51;5.77;;;3.10;;
13927;SDS011;7036;50.834;4.718;2023-07-31T09:45:18;5.60;;;3.07;;
13927;SDS011;7036;50.834;4.718;2023-07-31T09:47:48;7.20;;;3.00;;
13927;SDS011;7036;50.834;4.718;2023-07-31T09:50:15;6.33;;;3.00;;
13927;SDS011;7036;50.834;4.718;2023-07-31T09:52:44;7.50;;;3.40;;
13927;SDS011;7036;50.834;4.718;2023-07-31T09:55:12;5.13;;;2.77;;
13927;SDS011;7036;50.834;4.718;2023-07-31T09:57:43;6.97;;;3.07;;
13927;SDS011;7036;50.834;4.718;2023-07-31T10:00:09;7.03;;;3.27;;
13927;SDS011;7036;50.834;4.718;2023-07-31T10:02:36;11.32;;;3.10;;
13927;SDS011;7036;50.834;4.718;2023-07-31T10:05:03;5.03;;;2.90;;
13927;SDS011;7036;50.834;4.718;2023-07-31T10:07:30;8.67;;;2.83;;
13927;SDS011;7036;50.834;4.718;2023-07-31T10:10:00;4.90;;;2.97;;
13927;SDS011;7036;50.834;4.718;2023-07-31T10:12:25;5.10;;;2.40;;
13927;SDS011;7036;50.834;4.718;2023-07-31T10:14:51;3.97;;;2.83;;
13927;SDS011;7036;50.834;4.718;2023-07-31T10:17:18;3.10;;;2.60;;
13927;SDS011;7036;50.834;4.718;2023-07-31T10:19:45;3.97;;;2.87;;
13927;SDS011;7036;50.834;4.718;2023-07-31T10:22:12;4.33;;;2.83;;
13927;SDS011;7036;50.834;4.718;2023-07-31T10:24:38;6.20;;;3.17;;
13927;SDS011;7036;50.834;4.718;2023-07-31T10:27:05;4.07;;;3.00;;
13927;SDS011;7036;50.834;4.718;2023-07-31T10:29:32;5.20;;;2.77;;
13927;SDS011;7036;50.834;4.718;2023-07-31T10:31:59;3.90;;;2.87;;
13927;SDS011;7036;50.834;4.718;2023-07-31T10:34:27;3.87;;;3.03;;
13927;SDS011;7036;50.834;4.718;2023-07-31T10:37:19;3.63;;;3.17;;
13927;SDS011;7036;50.834;4.718;2023-07-31T10:39:39;3.90;;;2.70;;
13927;SDS011;7036;50.834;4.718;2023-07-31T10:42:10;3.90;;;2.67;;
13927;SDS011;7036;50.834;4.718;2023-07-31T10:44:36;4.90;;;2.67;;
13927;SDS011;7036;50.834;4.718;2023-07-31T10:47:03;3.30;;;2.57;;
13927;SDS011;7036;50.834;4.718;2023-07-31T10:49:30;3.30;;;2.90;;
13927;SDS011;7036;50.834;4.718;2023-07-31T10:51:57;4.10;;;2.83;;
13927;SDS011;7036;50.834;4.718;2023-07-31T10:54:23;4.80;;;2.97;;
13927;SDS011;7036;50.834;4.718;2023-07-31T10:56:50;3.57;;;2.77;;
13927;SDS011;7036;50.834;4.718;2023-07-31T10:59:17;5.87;;;3.10;;
13927;SDS011;7036;50.834;4.718;2023-07-31T11:01:51;4.07;;;2.80;;
13927;SDS011;7036;50.834;4.718;2023-07-31T11:04:24;7.13;;;3.13;;
13927;SDS011;7036;50.834;4.718;2023-07-31T11:06:56;4.63;;;2.90;;
13927;SDS011;7036;50.834;4.718;2023-07-31T11:09:22;4.87;;;3.13;;
13927;SDS011;7036;50.834;4.718;2023-07-31T11:11:49;3.73;;;3.00;;
13927;SDS011;7036;50.834;4.718;2023-07-31T11:14:16;3.43;;;2.83;;
13927;SDS011;7036;50.834;4.718;2023-07-31T11:16:43;4.27;;;2.70;;
13927;SDS011;7036;50.834;4.718;2023-07-31T11:19:10;4.47;;;3.30;;
13927;SDS011;7036;50.834;4.718;2023-07-31T11:21:37;5.17;;;2.93;;
13927;SDS011;7036;50.834;4.718;2023-07-31T11:24:04;3.57;;;2.50;;
13927;SDS011;7036;50.834;4.718;2023-07-31T11:26:31;5.43;;;2.93;;
13927;SDS011;7036;50.834;4.718;2023-07-31T11:28:58;3.97;;;2.90;;
13927;SDS011;7036;50.834;4.718;2023-07-31T11:31:24;3.93;;;3.00;;
13927;SDS011;7036;50.834;4.718;2023-07-31T11:34:03;4.97;;;3.20;;
13927;SDS011;7036;50.834;4.718;2023-07-31T11:36:19;4.53;;;3.07;;
13927;SDS011;7036;50.834;4.718;2023-07-31T11:38:46;4.07;;;3.20;;
13927;SDS011;7036;50.834;4.718;2023-07-31T11:41:15;4.27;;;3.27;;
13927;SDS011;7036;50.834;4.718;2023-07-31T11:43:42;6.67;;;3.27;;
13927;SDS011;7036;50.834;4.718;2023-07-31T11:46:09;3.43;;;3.10;;
13927;SDS011;7036;50.834;4.718;2023-07-31T11:48:36;5.50;;;3.07;;
13927;SDS011;7036;50.834;4.718;2023-07-31T11:51:04;7.13;;;3.23;;
13927;SDS011;7036;50.834;4.718;2023-07-31T11:53:35;4.40;;;2.90;;
13927;SDS011;7036;50.834;4.718;2023-07-31T11:56:09;3.70;;;2.90;;
13927;SDS011;7036;50.834;4.718;2023-07-31T11:58:36;6.47;;;3.40;;
13927;SDS011;7036;50.834;4.718;2023-07-31T12:01:02;5.40;;;3.40;;
13927;SDS011;7036;50.834;4.718;2023-07-31T12:03:29;3.87;;;2.97;;
13927;SDS011;7036;50.834;4.718;2023-07-31T12:05:57;2.90;;;2.63;;
13927;SDS011;7036;50.834;4.718;2023-07-31T12:08:23;3.13;;;2.67;;
13927;SDS011;7036;50.834;4.718;2023-07-31T12:10:51;4.03;;;3.00;;
13927;SDS011;7036;50.834;4.718;2023-07-31T12:13:21;4.97;;;3.43;;
13927;SDS011;7036;50.834;4.718;2023-07-31T12:15:54;5.30;;;3.57;;
13927;SDS011;7036;50.834;4.718;2023-07-31T12:18:23;6.90;;;4.50;;
13927;SDS011;7036;50.834;4.718;2023-07-31T12:20:56;8.93;;;5.37;;
13927;SDS011;7036;50.834;4.718;2023-07-31T12:23:29;8.50;;;4.30;;
13927;SDS011;7036;50.834;4.718;2023-07-31T12:26:07;10.53;;;5.27;;
13927;SDS011;7036;50.834;4.718;2023-07-31T12:28:43;15.60;;;6.90;;
13927;SDS011;7036;50.834;4.718;2023-07-31T12:31:13;9.13;;;5.77;;
13927;SDS011;7036;50.834;4.718;2023-07-31T12:33:42;7.97;;;5.90;;
13927;SDS011;7036;50.834;4.718;2023-07-31T12:36:10;8.07;;;5.80;;
13927;SDS011;7036;50.834;4.718;2023-07-31T12:38:36;12.70;;;6.53;;
13927;SDS011;7036;50.834;4.718;2023-07-31T12:41:03;12.02;;;6.30;;
13927;SDS011;7036;50.834;4.718;2023-07-31T12:43:30;13.13;;;5.60;;
13927;SDS011;7036;50.834;4.718;2023-07-31T12:45:57;6.93;;;4.73;;
13927;SDS011;7036;50.834;4.718;2023-07-31T12:48:25;9.40;;;5.88;;
13927;SDS011;7036;50.834;4.718;2023-07-31T12:50:52;9.50;;;5.03;;
13927;SDS011;7036;50.834;4.718;2023-07-31T12:53:19;10.00;;;5.32;;
13927;SDS011;7036;50.834;4.718;2023-07-31T12:55:46;10.38;;;5.03;;
13927;SDS011;7036;50.834;4.718;2023-07-31T12:58:13;7.80;;;5.00;;
13927;SDS011;7036;50.834;4.718;2023-07-31T13:00:40;8.90;;;5.27;;
13927;SDS011;7036;50.834;4.718;2023-07-31T13:03:07;11.20;;;5.40;;
13927;SDS011;7036;50.834;4.718;2023-07-31T13:05:34;6.57;;;4.37;;
13927;SDS011;7036;50.834;4.718;2023-07-31T13:08:01;8.40;;;5.10;;
13927;SDS011;7036;50.834;4.718;2023-07-31T13:10:28;7.30;;;5.00;;
13927;SDS011;7036;50.834;4.718;2023-07-31T13:12:55;7.57;;;4.80;;
13927;SDS011;7036;50.834;4.718;2023-07-31T13:15:21;9.07;;;5.00;;
13927;SDS011;7036;50.834;4.718;2023-07-31T13:17:48;7.93;;;5.30;;
13927;SDS011;7036;50.834;4.718;2023-07-31T13:20:15;7.40;;;5.23;;
13927;SDS011;7036;50.834;4.718;2023-07-31T13:22:42;6.63;;;5.23;;
13927;SDS011;7036;50.834;4.718;2023-07-31T13:25:10;10.63;;;5.50;;
13927;SDS011;7036;50.834;4.718;2023-07-31T13:27:37;8.27;;;4.90;;
13927;SDS011;7036;50.834;4.718;2023-07-31T13:30:04;6.80;;;4.73;;
13927;SDS011;7036;50.834;4.718;2023-07-31T13:32:31;10.33;;;4.90;;
13927;SDS011;7036;50.834;4.718;2023-07-31T13:34:58;8.00;;;5.13;;
13927;SDS011;7036;50.834;4.718;2023-07-31T13:37:25;6.30;;;4.63;;
13927;SDS011;7036;50.834;4.718;2023-07-31T13:39:52;7.70;;;5.10;;
13927;SDS011;7036;50.834;4.718;2023-07-31T13:42:19;9.57;;;5.10;;
13927;SDS011;7036;50.834;4.718;2023-07-31T13:44:46;6.40;;;5.10;;
13927;SDS011;7036;50.834;4.718;2023-07-31T13:47:12;6.73;;;5.00;;
13927;SDS011;7036;50.834;4.718;2023-07-31T13:49:40;8.35;;;5.50;;
13927;SDS011;7036;50.834;4.718;2023-07-31T13:52:07;6.87;;;5.10;;
13927;SDS011;7036;50.834;4.718;2023-07-31T13:54:34;13.75;;;4.85;;
13927;SDS011;7036;50.834;4.718;2023-07-31T13:57:01;6.87;;;5.13;;
13927;SDS011;7036;50.834;4.718;2023-07-31T13:59:28;7.70;;;5.40;;
13927;SDS011;7036;50.834;4.718;2023-07-31T14:01:56;10.98;;;5.68;;
13927;SDS011;7036;50.834;4.718;2023-07-31T14:04:23;6.07;;;4.90;;
13927;SDS011;7036;50.834;4.718;2023-07-31T14:06:50;9.73;;;5.03;;
13927;SDS011;7036;50.834;4.718;2023-07-31T14:09:17;6.03;;;4.70;;
13927;SDS011;7036;50.834;4.718;2023-07-31T14:11:43;7.00;;;4.97;;
13927;SDS011;7036;50.834;4.718;2023-07-31T14:14:10;5.50;;;4.73;;
13927;SDS011;7036;50.834;4.718;2023-07-31T14:16:37;5.83;;;4.83;;
13927;SDS011;7036;50.834;4.718;2023-07-31T14:19:04;13.93;;;5.90;;
13927;SDS011;7036;50.834;4.718;2023-07-31T14:21:32;10.15;;;5.53;;
13927;SDS011;7036;50.834;4.718;2023-07-31T14:23:58;10.43;;;5.20;;
13927;SDS011;7036;50.834;4.718;2023-07-31T14:26:25;7.07;;;4.83;;
13927;SDS011;7036;50.834;4.718;2023-07-31T14:28:52;7.67;;;4.73;;
13927;SDS011;7036;50.834;4.718;2023-07-31T14:31:19;6.10;;;4.60;;
13927;SDS011;7036;50.834;4.718;2023-07-31T14:33:46;8.13;;;5.20;;
13927;SDS011;7036;50.834;4.718;2023-07-31T14:36:13;8.37;;;5.20;;
13927;SDS011;7036;50.834;4.718;2023-07-31T14:38:40;7.07;;;5.07;;
13927;SDS011;7036;50.834;4.718;2023-07-31T14:41:07;6.53;;;4.73;;
13927;SDS011;7036;50.834;4.718;2023-07-31T14:43:34;9.20;;;5.00;;
13927;SDS011;7036;50.834;4.718;2023-07-31T14:46:01;5.13;;;4.10;;
13927;SDS011;7036;50.834;4.718;2023-07-31T14:48:28;5.00;;;4.50;;
13927;SDS011;7036;50.834;4.718;2023-07-31T14:50:55;7.03;;;4.30;;
13927;SDS011;7036;50.834;4.718;2023-07-31T14:53:22;6.30;;;4.23;;
13927;SDS011;7036;50.834;4.718;2023-07-31T14:55:49;6.63;;;3.90;;
13927;SDS011;7036;50.834;4.718;2023-07-31T14:58:16;4.50;;;3.93;;
13927;SDS011;7036;50.834;4.718;2023-07-31T15:00:43;4.60;;;4.17;;
13927;SDS011;7036;50.834;4.718;2023-07-31T15:03:11;5.07;;;4.07;;
13927;SDS011;7036;50.834;4.718;2023-07-31T15:05:37;4.93;;;4.37;;
13927;SDS011;7036;50.834;4.718;2023-07-31T15:08:04;5.37;;;4.20;;
13927;SDS011;7036;50.834;4.718;2023-07-31T15:10:31;3.90;;;3.50;;
13927;SDS011;7036;50.834;4.718;2023-07-31T15:12:58;5.77;;;3.90;;
13927;SDS011;7036;50.834;4.718;2023-07-31T15:15:25;4.37;;;3.73;;